sensor_id;sensor_type;location;lat;lon;timestamp;pressure;altitude;pressure_sealevel;temperature;humidity
15998;BME280;8103;51.340;12.326;2023-02-17T00:00:39;100768.59;;;9.22;82.08
15998;BME280;8103;51.340;12.326;2023-02-17T00:03:09;100767.09;;;9.26;82.26
15998;BME280;8103;51.340;12.326;2023-02-17T00:05:38;100769.31;;;9.29;82.16
15998;BME280;8103;51.340;12.326;2023-02-17T00:08:06;100766.75;;;9.34;82.07
15998;BME280;8103;51.340;12.326;2023-02-17T00:10:32;100764.06;;;9.34;81.99
15998;BME280;8103;51.340;12.326;2023-02-17T00:12:59;100763.63;;;9.37;81.52
15998;BME280;8103;51.340;12.326;2023-02-17T00:15:26;100763.16;;;9.40;81.78
15998;BME280;8103;51.340;12.326;2023-02-17T00:17:53;100766.44;;;9.42;82.03
15998;BME280;8103;51.340;12.326;2023-02-17T00:20:19;100755.13;;;9.40;81.76
15998;BME280;8103;51.340;12.326;2023-02-17T00:22:46;100757.25;;;9.38;82.19
15998;BME280;8103;51.340;12.326;2023-02-17T00:25:13;100753.28;;;9.41;82.28
15998;BME280;8103;51.340;12.326;2023-02-17T00:27:40;100748.16;;;9.39;82.06
15998;BME280;8103;51.340;12.326;2023-02-17T00:30:07;100732.47;;;9.43;82.03
15998;BME280;8103;51.340;12.326;2023-02-17T00:32:35;100731.63;;;9.42;82.28
15998;BME280;8103;51.340;12.326;2023-02-17T00:35:02;100718.03;;;9.44;82.38
15998;BME280;8103;51.340;12.326;2023-02-17T00:37:29;100723.00;;;9.40;82.43
15998;BME280;8103;51.340;12.326;2023-02-17T00:39:55;100719.31;;;9.41;82.57
15998;BME280;8103;51.340;12.326;2023-02-17T00:42:22;100725.00;;;9.45;82.24
15998;BME280;8103;51.340;12.326;2023-02-17T00:44:49;100722.09;;;9.46;82.20
15998;BME280;8103;51.340;12.326;2023-02-17T00:47:16;100722.91;;;9.47;81.91
15998;BME280;8103;51.340;12.326;2023-02-17T00:49:42;100719.19;;;9.48;81.90
15998;BME280;8103;51.340;12.326;2023-02-17T00:52:09;100706.88;;;9.47;81.36
15998;BME280;8103;51.340;12.326;2023-02-17T00:54:36;100703.94;;;9.48;81.09
15998;BME280;8103;51.340;12.326;2023-02-17T00:57:07;100714.19;;;9.51;81.54
15998;BME280;8103;51.340;12.326;2023-02-17T00:59:34;100715.81;;;9.52;80.86
15998;BME280;8103;51.340;12.326;2023-02-17T01:02:00;100715.81;;;9.52;81.13
15998;BME280;8103;51.340;12.326;2023-02-17T01:04:27;100711.84;;;9.55;81.17
15998;BME280;8103;51.340;12.326;2023-02-17T01:06:54;100720.25;;;9.58;80.94
15998;BME280;8103;51.340;12.326;2023-02-17T01:09:21;100708.84;;;9.51;80.87
15998;BME280;8103;51.340;12.326;2023-02-17T01:11:48;100708.84;;;9.51;81.11
15998;BME280;8103;51.340;12.326;2023-02-17T01:14:15;100689.97;;;9.35;81.83
15998;BME280;8103;51.340;12.326;2023-02-17T01:16:47;100696.00;;;9.30;82.38
15998;BME280;8103;51.340;12.326;2023-02-17T01:19:17;100694.97;;;9.31;82.68
15998;BME280;8103;51.340;12.326;2023-02-17T01:21:45;100690.22;;;9.33;82.63
15998;BME280;8103;51.340;12.326;2023-02-17T01:24:12;100690.91;;;9.40;82.42
15998;BME280;8103;51.340;12.326;2023-02-17T01:26:39;100691.13;;;9.50;81.79
15998;BME280;8103;51.340;12.326;2023-02-17T01:29:07;100688.00;;;9.53;81.84
15998;BME280;8103;51.340;12.326;2023-02-17T01:31:34;100681.94;;;9.58;81.29
15998;BME280;8103;51.340;12.326;2023-02-17T01:34:03;100685.56;;;9.63;80.81
15998;BME280;8103;51.340;12.326;2023-02-17T01:36:31;100679.75;;;9.66;80.60
15998;BME280;8103;51.340;12.326;2023-02-17T01:38:59;100668.53;;;9.69;80.49
15998;BME280;8103;51.340;12.326;2023-02-17T01:41:28;100666.47;;;9.71;79.93
15998;BME280;8103;51.340;12.326;2023-02-17T01:46:43;100656.91;;;9.75;79.89
15998;BME280;8103;51.340;12.326;2023-02-17T01:49:27;100659.69;;;9.80;79.49
15998;BME280;8103;51.340;12.326;2023-02-17T01:52:04;100663.28;;;9.86;78.88
15998;BME280;8103;51.340;12.326;2023-02-17T01:54:54;100657.16;;;9.85;78.78
15998;BME280;8103;51.340;12.326;2023-02-17T01:57:29;100651.28;;;9.88;78.08
15998;BME280;8103;51.340;12.326;2023-02-17T01:59:57;100648.13;;;9.91;78.29
15998;BME280;8103;51.340;12.326;2023-02-17T02:02:25;100655.69;;;9.94;78.20
15998;BME280;8103;51.340;12.326;2023-02-17T02:04:54;100640.34;;;10.01;77.47
15998;BME280;8103;51.340;12.326;2023-02-17T02:07:40;100639.88;;;10.04;77.62
15998;BME280;8103;51.340;12.326;2023-02-17T02:10:10;100623.31;;;10.07;76.84
15998;BME280;8103;51.340;12.326;2023-02-17T02:12:40;100628.44;;;10.09;76.69
15998;BME280;8103;51.340;12.326;2023-02-17T02:15:20;100620.75;;;10.12;76.80
15998;BME280;8103;51.340;12.326;2023-02-17T02:18:25;100614.31;;;10.13;76.93
15998;BME280;8103;51.340;12.326;2023-02-17T02:21:37;100612.94;;;10.11;76.98
15998;BME280;8103;51.340;12.326;2023-02-17T02:28:20;100606.88;;;10.15;77.14
15998;BME280;8103;51.340;12.326;2023-02-17T02:31:25;100597.22;;;10.14;76.96
15998;BME280;8103;51.340;12.326;2023-02-17T02:34:15;100589.19;;;10.14;77.39
15998;BME280;8103;51.340;12.326;2023-02-17T02:37:00;100589.75;;;10.16;77.23
15998;BME280;8103;51.340;12.326;2023-02-17T02:39:41;100593.47;;;10.15;77.91
15998;BME280;8103;51.340;12.326;2023-02-17T02:42:16;100589.75;;;10.16;77.78
15998;BME280;8103;51.340;12.326;2023-02-17T02:44:46;100581.22;;;10.19;77.72
15998;BME280;8103;51.340;12.326;2023-02-17T02:47:52;100578.53;;;10.19;78.06
15998;BME280;8103;51.340;12.326;2023-02-17T03:02:43;100570.44;;;10.31;78.67
15998;BME280;8103;51.340;12.326;2023-02-17T03:08:33;100556.31;;;10.35;78.36
15998;BME280;8103;51.340;12.326;2023-02-17T03:11:03;100566.56;;;10.38;78.30
15998;BME280;8103;51.340;12.326;2023-02-17T03:13:33;100562.50;;;10.36;78.59
15998;BME280;8103;51.340;12.326;2023-02-17T03:16:06;100569.00;;;10.40;78.60
15998;BME280;8103;51.340;12.326;2023-02-17T03:18:35;100564.47;;;10.40;78.94
15998;BME280;8103;51.340;12.326;2023-02-17T03:21:11;100567.38;;;10.39;79.24
15998;BME280;8103;51.340;12.326;2023-02-17T03:23:39;100555.84;;;10.38;79.60
15998;BME280;8103;51.340;12.326;2023-02-17T03:26:06;100552.13;;;10.39;79.15
15998;BME280;8103;51.340;12.326;2023-02-17T03:28:33;100552.91;;;10.40;78.98
15998;BME280;8103;51.340;12.326;2023-02-17T03:31:00;100554.88;;;10.44;78.95
15998;BME280;8103;51.340;12.326;2023-02-17T03:33:27;100551.41;;;10.44;79.11
15998;BME280;8103;51.340;12.326;2023-02-17T03:35:54;100543.50;;;10.37;79.21
15998;BME280;8103;51.340;12.326;2023-02-17T03:38:21;100544.09;;;10.39;78.92
15998;BME280;8103;51.340;12.326;2023-02-17T03:40:48;100540.94;;;10.42;79.22
15998;BME280;8103;51.340;12.326;2023-02-17T03:43:15;100543.03;;;10.40;79.19
15998;BME280;8103;51.340;12.326;2023-02-17T03:45:43;100539.75;;;10.38;79.72
15998;BME280;8103;51.340;12.326;2023-02-17T03:48:10;100543.84;;;10.41;79.44
15998;BME280;8103;51.340;12.326;2023-02-17T03:50:37;100530.75;;;10.44;79.36
15998;BME280;8103;51.340;12.326;2023-02-17T03:53:03;100529.22;;;10.48;79.29
15998;BME280;8103;51.340;12.326;2023-02-17T03:55:30;100527.34;;;10.49;79.31
15998;BME280;8103;51.340;12.326;2023-02-17T03:57:57;100517.44;;;10.49;79.18
15998;BME280;8103;51.340;12.326;2023-02-17T04:00:24;100516.03;;;10.47;80.54
15998;BME280;8103;51.340;12.326;2023-02-17T04:02:50;100521.91;;;10.44;80.83
15998;BME280;8103;51.340;12.326;2023-02-17T04:05:17;100526.78;;;10.47;80.91
15998;BME280;8103;51.340;12.326;2023-02-17T04:07:44;100531.41;;;10.51;80.71
15998;BME280;8103;51.340;12.326;2023-02-17T04:10:11;100527.09;;;10.50;80.68
15998;BME280;8103;51.340;12.326;2023-02-17T04:12:39;100523.34;;;10.51;80.53
15998;BME280;8103;51.340;12.326;2023-02-17T04:15:07;100523.69;;;10.55;80.92
15998;BME280;8103;51.340;12.326;2023-02-17T04:17:38;100522.16;;;10.59;80.30
15998;BME280;8103;51.340;12.326;2023-02-17T04:20:06;100517.59;;;10.59;80.80
15998;BME280;8103;51.340;12.326;2023-02-17T04:22:33;100516.47;;;10.55;81.59
15998;BME280;8103;51.340;12.326;2023-02-17T04:25:00;100518.09;;;10.56;81.44
15998;BME280;8103;51.340;12.326;2023-02-17T04:27:27;100507.38;;;10.56;81.74
15998;BME280;8103;51.340;12.326;2023-02-17T04:29:54;100507.63;;;10.55;81.74
15998;BME280;8103;51.340;12.326;2023-02-17T04:32:20;100510.88;;;10.57;81.55
15998;BME280;8103;51.340;12.326;2023-02-17T04:34:47;100507.63;;;10.55;81.65
15998;BME280;8103;51.340;12.326;2023-02-17T04:37:14;100509.22;;;10.56;81.80
15998;BME280;8103;51.340;12.326;2023-02-17T04:39:41;100504.69;;;10.56;82.21
15998;BME280;8103;51.340;12.326;2023-02-17T04:42:08;100505.28;;;10.58;82.31
15998;BME280;8103;51.340;12.326;2023-02-17T04:44:35;100508.75;;;10.59;81.44
15998;BME280;8103;51.340;12.326;2023-02-17T04:47:02;100505.75;;;10.55;82.15
15998;BME280;8103;51.340;12.326;2023-02-17T04:49:30;100508.44;;;10.55;82.20
15998;BME280;8103;51.340;12.326;2023-02-17T04:51:57;100502.00;;;10.56;81.89
15998;BME280;8103;51.340;12.326;2023-02-17T04:54:25;100500.22;;;10.62;81.38
15998;BME280;8103;51.340;12.326;2023-02-17T04:56:52;100485.81;;;10.68;81.40
15998;BME280;8103;51.340;12.326;2023-02-17T04:59:19;100486.66;;;10.68;81.31
15998;BME280;8103;51.340;12.326;2023-02-17T05:01:45;100486.66;;;10.68;80.96
15998;BME280;8103;51.340;12.326;2023-02-17T05:04:12;100483.72;;;10.70;81.01
15998;BME280;8103;51.340;12.326;2023-02-17T05:06:39;100488.75;;;10.66;81.09
15998;BME280;8103;51.340;12.326;2023-02-17T05:09:06;100491.69;;;10.65;81.57
15998;BME280;8103;51.340;12.326;2023-02-17T05:11:33;100480.16;;;10.64;81.40
15998;BME280;8103;51.340;12.326;2023-02-17T05:14:00;100476.66;;;10.64;81.80
15998;BME280;8103;51.340;12.326;2023-02-17T05:16:27;100483.88;;;10.63;81.09
15998;BME280;8103;51.340;12.326;2023-02-17T05:18:53;100483.09;;;10.63;80.98
15998;BME280;8103;51.340;12.326;2023-02-17T05:21:20;100473.16;;;10.63;81.33
15998;BME280;8103;51.340;12.326;2023-02-17T05:23:47;100472.38;;;10.63;81.67
15998;BME280;8103;51.340;12.326;2023-02-17T05:26:14;100468.84;;;10.62;81.50
15998;BME280;8103;51.340;12.326;2023-02-17T05:28:41;100471.84;;;10.66;81.61
15998;BME280;8103;51.340;12.326;2023-02-17T05:31:07;100463.00;;;10.65;81.06
15998;BME280;8103;51.340;12.326;2023-02-17T05:33:34;100456.66;;;10.71;81.08
15998;BME280;8103;51.340;12.326;2023-02-17T05:36:03;100457.78;;;10.75;80.94
15998;BME280;8103;51.340;12.326;2023-02-17T05:38:31;100448.91;;;10.75;80.47
15998;BME280;8103;51.340;12.326;2023-02-17T05:40:58;100453.97;;;10.71;81.13
15998;BME280;8103;51.340;12.326;2023-02-17T05:43:25;100457.78;;;10.75;81.29
15998;BME280;8103;51.340;12.326;2023-02-17T05:45:52;100456.72;;;10.76;80.82
15998;BME280;8103;51.340;12.326;2023-02-17T05:48:18;100456.72;;;10.76;81.02
15998;BME280;8103;51.340;12.326;2023-02-17T05:50:45;100462.09;;;10.76;81.22
15998;BME280;8103;51.340;12.326;2023-02-17T05:53:12;100468.66;;;10.86;81.26
15998;BME280;8103;51.340;12.326;2023-02-17T05:55:39;100465.66;;;10.82;81.71
15998;BME280;8103;51.340;12.326;2023-02-17T05:58:06;100469.72;;;10.85;81.62
15998;BME280;8103;51.340;12.326;2023-02-17T06:00:32;100468.16;;;10.89;81.41
15998;BME280;8103;51.340;12.326;2023-02-17T06:02:59;100479.72;;;10.89;81.74
15998;BME280;8103;51.340;12.326;2023-02-17T06:05:26;100479.47;;;10.91;81.93
15998;BME280;8103;51.340;12.326;2023-02-17T06:07:53;100480.09;;;10.98;81.02
15998;BME280;8103;51.340;12.326;2023-02-17T06:10:20;100468.38;;;11.04;81.09
15998;BME280;8103;51.340;12.326;2023-02-17T06:12:47;100472.13;;;11.03;81.70
15998;BME280;8103;51.340;12.326;2023-02-17T06:15:13;100469.75;;;11.06;81.60
15998;BME280;8103;51.340;12.326;2023-02-17T06:17:40;100464.94;;;11.08;81.21
15998;BME280;8103;51.340;12.326;2023-02-17T06:20:08;100467.88;;;11.07;81.04
15998;BME280;8103;51.340;12.326;2023-02-17T06:22:35;100468.91;;;11.06;81.45
15998;BME280;8103;51.340;12.326;2023-02-17T06:25:02;100485.59;;;11.08;81.62
15998;BME280;8103;51.340;12.326;2023-02-17T06:27:29;100454.72;;;11.05;81.73
15998;BME280;8103;51.340;12.326;2023-02-17T06:29:56;100455.00;;;11.09;81.61
15998;BME280;8103;51.340;12.326;2023-02-17T06:32:23;100463.63;;;11.11;80.98
15998;BME280;8103;51.340;12.326;2023-02-17T06:34:50;100461.44;;;11.08;81.84
15998;BME280;8103;51.340;12.326;2023-02-17T06:37:17;100456.91;;;11.08;81.47
15998;BME280;8103;51.340;12.326;2023-02-17T06:39:43;100455.00;;;11.09;82.36
15998;BME280;8103;51.340;12.326;2023-02-17T06:46:16;100448.03;;;11.08;82.81
15998;BME280;8103;51.340;12.326;2023-02-17T06:48:43;100438.38;;;11.07;82.81
15998;BME280;8103;51.340;12.326;2023-02-17T06:51:10;100438.41;;;11.12;82.75
15998;BME280;8103;51.340;12.326;2023-02-17T06:53:37;100425.56;;;11.14;82.26
15998;BME280;8103;51.340;12.326;2023-02-17T06:56:04;100414.84;;;11.14;82.50
15998;BME280;8103;51.340;12.326;2023-02-17T06:58:31;100416.78;;;11.18;82.31
15998;BME280;8103;51.340;12.326;2023-02-17T07:01:02;100420.53;;;11.17;82.88
15998;BME280;8103;51.340;12.326;2023-02-17T07:03:30;100415.19;;;11.22;82.92
15998;BME280;8103;51.340;12.326;2023-02-17T07:05:58;100417.88;;;11.22;82.33
15998;BME280;8103;51.340;12.326;2023-02-17T07:08:25;100420.81;;;11.21;82.41
15998;BME280;8103;51.340;12.326;2023-02-17T07:10:52;100426.19;;;11.21;82.72
15998;BME280;8103;51.340;12.326;2023-02-17T07:13:19;100414.94;;;11.24;83.06
15998;BME280;8103;51.340;12.326;2023-02-17T07:15:46;100423.56;;;11.26;82.89
15998;BME280;8103;51.340;12.326;2023-02-17T07:18:12;100426.31;;;11.31;82.77
15998;BME280;8103;51.340;12.326;2023-02-17T07:20:39;100437.59;;;11.33;82.52
15998;BME280;8103;51.340;12.326;2023-02-17T07:23:06;100430.13;;;11.35;82.61
15998;BME280;8103;51.340;12.326;2023-02-17T07:25:33;100438.69;;;11.32;82.72
15998;BME280;8103;51.340;12.326;2023-02-17T07:28:00;100429.47;;;11.28;83.36
15998;BME280;8103;51.340;12.326;2023-02-17T07:30:26;100431.91;;;11.29;82.88
15998;BME280;8103;51.340;12.326;2023-02-17T07:32:53;100451.53;;;11.30;82.94
15998;BME280;8103;51.340;12.326;2023-02-17T07:35:20;100440.28;;;11.33;83.02
15998;BME280;8103;51.340;12.326;2023-02-17T07:37:47;100433.31;;;11.32;82.64
15998;BME280;8103;51.340;12.326;2023-02-17T07:40:14;100441.91;;;11.34;82.82
15998;BME280;8103;51.340;12.326;2023-02-17T07:42:40;100441.41;;;11.37;82.43
15998;BME280;8103;51.340;12.326;2023-02-17T07:45:09;100446.28;;;11.40;82.50
15998;BME280;8103;51.340;12.326;2023-02-17T07:47:35;100446.88;;;11.47;82.02
15998;BME280;8103;51.340;12.326;2023-02-17T07:50:02;100454.94;;;11.47;81.87
15998;BME280;8103;51.340;12.326;2023-02-17T07:52:29;100456.63;;;11.53;81.59
15998;BME280;8103;51.340;12.326;2023-02-17T07:54:56;100463.06;;;11.52;81.64
15998;BME280;8103;51.340;12.326;2023-02-17T07:57:23;100448.63;;;11.58;81.16
15998;BME280;8103;51.340;12.326;2023-02-17T07:59:49;100447.31;;;11.60;80.97
15998;BME280;8103;51.340;12.326;2023-02-17T08:02:17;100443.59;;;11.61;80.89
15998;BME280;8103;51.340;12.326;2023-02-17T08:04:44;100439.59;;;11.64;80.88
15998;BME280;8103;51.340;12.326;2023-02-17T08:07:11;100441.22;;;11.65;81.57
15998;BME280;8103;51.340;12.326;2023-02-17T08:09:38;100423.03;;;11.72;81.35
15998;BME280;8103;51.340;12.326;2023-02-17T08:12:23;100424.16;;;11.76;80.70
15998;BME280;8103;51.340;12.326;2023-02-17T08:15:10;100416.34;;;11.74;81.19
15998;BME280;8103;51.340;12.326;2023-02-17T08:17:39;100420.81;;;11.64;82.87
15998;BME280;8103;51.340;12.326;2023-02-17T08:20:07;100408.91;;;11.33;85.06
15998;BME280;8103;51.340;12.326;2023-02-17T08:22:36;100412.22;;;11.19;87.53
15998;BME280;8103;51.340;12.326;2023-02-17T08:25:03;100421.19;;;11.08;87.58
15998;BME280;8103;51.340;12.326;2023-02-17T08:27:32;100409.34;;;11.04;87.69
15998;BME280;8103;51.340;12.326;2023-02-17T08:29:58;100400.84;;;11.12;87.68
15998;BME280;8103;51.340;12.326;2023-02-17T08:32:25;100402.03;;;11.21;87.26
15998;BME280;8103;51.340;12.326;2023-02-17T08:34:55;100410.00;;;11.37;86.76
15998;BME280;8103;51.340;12.326;2023-02-17T08:37:22;100415.81;;;11.51;85.47
15998;BME280;8103;51.340;12.326;2023-02-17T08:39:49;100410.34;;;11.67;84.42
15998;BME280;8103;51.340;12.326;2023-02-17T08:42:16;100396.78;;;11.79;83.54
15998;BME280;8103;51.340;12.326;2023-02-17T08:44:43;100393.97;;;11.95;82.56
15998;BME280;8103;51.340;12.326;2023-02-17T08:47:10;100391.97;;;12.12;81.77
15998;BME280;8103;51.340;12.326;2023-02-17T08:49:37;100388.72;;;12.10;81.42
15998;BME280;8103;51.340;12.326;2023-02-17T08:52:05;100390.88;;;12.13;80.45
15998;BME280;8103;51.340;12.326;2023-02-17T08:54:32;100380.47;;;12.22;80.29
15998;BME280;8103;51.340;12.326;2023-02-17T08:56:59;100386.16;;;12.25;79.47
15998;BME280;8103;51.340;12.326;2023-02-17T08:59:26;100375.59;;;12.19;79.06
15998;BME280;8103;51.340;12.326;2023-02-17T09:01:53;100374.56;;;12.25;79.85
15998;BME280;8103;51.340;12.326;2023-02-17T09:04:21;100371.78;;;12.10;81.49
15998;BME280;8103;51.340;12.326;2023-02-17T09:06:51;100367.84;;;11.91;83.66
15998;BME280;8103;51.340;12.326;2023-02-17T09:13:18;100368.31;;;11.30;87.86
15998;BME280;8103;51.340;12.326;2023-02-17T09:15:45;100361.78;;;11.21;89.49
15998;BME280;8103;51.340;12.326;2023-02-17T09:18:12;100382.75;;;11.24;90.10
15998;BME280;8103;51.340;12.326;2023-02-17T09:20:39;100377.88;;;11.21;89.60
15998;BME280;8103;51.340;12.326;2023-02-17T09:23:07;100369.19;;;11.35;88.78
15998;BME280;8103;51.340;12.326;2023-02-17T09:25:33;100368.59;;;11.55;87.02
15998;BME280;8103;51.340;12.326;2023-02-17T09:28:00;100362.66;;;11.79;85.97
15998;BME280;8103;51.340;12.326;2023-02-17T09:30:27;100350.72;;;11.97;83.97
15998;BME280;8103;51.340;12.326;2023-02-17T09:32:54;100348.34;;;12.05;82.90
15998;BME280;8103;51.340;12.326;2023-02-17T09:35:21;100351.41;;;12.14;82.50
15998;BME280;8103;51.340;12.326;2023-02-17T09:37:48;100345.03;;;12.30;82.15
15998;BME280;8103;51.340;12.326;2023-02-17T09:40:45;100322.00;;;12.44;80.86
15998;BME280;8103;51.340;12.326;2023-02-17T09:43:27;100327.38;;;12.44;80.26
15998;BME280;8103;51.340;12.326;2023-02-17T09:46:06;100331.66;;;12.45;80.42
15998;BME280;8103;51.340;12.326;2023-02-17T09:48:36;100311.81;;;12.51;79.81
15998;BME280;8103;51.340;12.326;2023-02-17T09:51:15;100316.97;;;12.57;79.38
15998;BME280;8103;51.340;12.326;2023-02-17T09:56:40;100311.38;;;12.79;77.82
15998;BME280;8103;51.340;12.326;2023-02-17T09:59:18;100321.09;;;12.85;77.36
15998;BME280;8103;51.340;12.326;2023-02-17T10:01:49;100303.88;;;12.86;77.19
15998;BME280;8103;51.340;12.326;2023-02-17T10:04:38;100305.13;;;12.58;79.86
15998;BME280;8103;51.340;12.326;2023-02-17T10:07:15;100314.91;;;12.23;81.61
15998;BME280;8103;51.340;12.326;2023-02-17T10:09:51;100313.16;;;12.07;83.72
15998;BME280;8103;51.340;12.326;2023-02-17T10:12:25;100317.69;;;12.01;85.12
15998;BME280;8103;51.340;12.326;2023-02-17T10:15:03;100305.28;;;11.95;85.58
15998;BME280;8103;51.340;12.326;2023-02-17T10:17:39;100296.44;;;11.95;84.95
15998;BME280;8103;51.340;12.326;2023-02-17T10:20:13;100297.56;;;12.04;83.57
15998;BME280;8103;51.340;12.326;2023-02-17T10:22:46;100280.38;;;12.05;84.06
15998;BME280;8103;51.340;12.326;2023-02-17T10:25:32;100287.50;;;11.84;86.08
15998;BME280;8103;51.340;12.326;2023-02-17T10:28:08;100281.69;;;11.66;87.65
15998;BME280;8103;51.340;12.326;2023-02-17T10:31:36;100280.34;;;11.63;87.48
15998;BME280;8103;51.340;12.326;2023-02-17T10:34:44;100281.97;;;12.01;85.46
15998;BME280;8103;51.340;12.326;2023-02-17T10:37:35;100279.47;;;12.36;83.41
15998;BME280;8103;51.340;12.326;2023-02-17T10:40:17;100277.16;;;12.59;80.62
15998;BME280;8103;51.340;12.326;2023-02-17T10:42:49;100276.94;;;12.71;79.15
15998;BME280;8103;51.340;12.326;2023-02-17T10:45:34;100259.75;;;12.92;77.71
15998;BME280;8103;51.340;12.326;2023-02-17T10:48:26;100280.28;;;13.03;77.31
15998;BME280;8103;51.340;12.326;2023-02-17T10:50:59;100256.09;;;13.13;76.71
15998;BME280;8103;51.340;12.326;2023-02-17T10:53:36;100251.22;;;13.05;76.89
15998;BME280;8103;51.340;12.326;2023-02-17T11:00:07;100255.28;;;13.28;76.01
15998;BME280;8103;51.340;12.326;2023-02-17T11:02:44;100248.03;;;13.28;76.11
15998;BME280;8103;51.340;12.326;2023-02-17T11:05:31;100235.63;;;13.32;75.60
15998;BME280;8103;51.340;12.326;2023-02-17T11:08:07;100232.94;;;13.32;76.01
15998;BME280;8103;51.340;12.326;2023-02-17T11:11:22;100241.03;;;13.42;75.94
15998;BME280;8103;51.340;12.326;2023-02-17T11:14:18;100221.63;;;13.45;75.74
15998;BME280;8103;51.340;12.326;2023-02-17T11:16:55;100220.00;;;13.49;75.29
15998;BME280;8103;51.340;12.326;2023-02-17T11:19:33;100223.50;;;13.60;74.62
15998;BME280;8103;51.340;12.326;2023-02-17T11:22:05;100219.75;;;13.61;75.08
15998;BME280;8103;51.340;12.326;2023-02-17T11:24:34;100211.91;;;13.49;75.54
15998;BME280;8103;51.340;12.326;2023-02-17T11:27:09;100210.31;;;13.53;75.79
15998;BME280;8103;51.340;12.326;2023-02-17T11:29:37;100217.56;;;13.48;76.39
15998;BME280;8103;51.340;12.326;2023-02-17T11:32:09;100215.16;;;13.46;76.52
15998;BME280;8103;51.340;12.326;2023-02-17T11:34:41;100190.38;;;13.49;76.40
15998;BME280;8103;51.340;12.326;2023-02-17T11:39:54;100205.47;;;13.55;76.85
15998;BME280;8103;51.340;12.326;2023-02-17T11:42:30;100186.06;;;13.58;76.98
15998;BME280;8103;51.340;12.326;2023-02-17T11:45:00;100182.81;;;13.66;76.88
15998;BME280;8103;51.340;12.326;2023-02-17T11:52:03;100148.31;;;13.78;76.83
15998;BME280;8103;51.340;12.326;2023-02-17T11:55:08;100149.59;;;13.86;76.58
15998;BME280;8103;51.340;12.326;2023-02-17T11:58:29;100159.59;;;13.85;76.90
15998;BME280;8103;51.340;12.326;2023-02-17T12:01:56;100141.19;;;14.07;76.20
15998;BME280;8103;51.340;12.326;2023-02-17T12:04:33;100141.16;;;14.17;76.02
15998;BME280;8103;51.340;12.326;2023-02-17T12:10:10;100099.28;;;14.30;75.17
15998;BME280;8103;51.340;12.326;2023-02-17T12:13:09;100109.81;;;14.31;75.66
15998;BME280;8103;51.340;12.326;2023-02-17T12:16:10;100114.66;;;14.34;75.29
15998;BME280;8103;51.340;12.326;2023-02-17T12:19:13;100109.75;;;14.41;74.92
15998;BME280;8103;51.340;12.326;2023-02-17T12:22:08;100101.63;;;14.46;75.10
15998;BME280;8103;51.340;12.326;2023-02-17T12:24:45;100097.81;;;14.52;75.22
15998;BME280;8103;51.340;12.326;2023-02-17T12:30:49;100090.59;;;14.43;75.28
15998;BME280;8103;51.340;12.326;2023-02-17T12:33:56;100094.06;;;14.48;75.30
15998;BME280;8103;51.340;12.326;2023-02-17T12:36:33;100085.44;;;14.46;75.23
15998;BME280;8103;51.340;12.326;2023-02-17T12:39:14;100088.16;;;14.41;75.85
15998;BME280;8103;51.340;12.326;2023-02-17T12:42:16;100095.25;;;14.32;75.88
15998;BME280;8103;51.340;12.326;2023-02-17T12:45:02;100085.03;;;14.29;76.10
15998;BME280;8103;51.340;12.326;2023-02-17T12:47:48;100094.22;;;14.23;76.46
15998;BME280;8103;51.340;12.326;2023-02-17T12:50:28;100082.88;;;14.21;76.54
15998;BME280;8103;51.340;12.326;2023-02-17T12:53:03;100093.66;;;14.26;76.35
15998;BME280;8103;51.340;12.326;2023-02-17T12:55:44;100079.94;;;14.23;76.16
15998;BME280;8103;51.340;12.326;2023-02-17T12:58:20;100085.84;;;14.20;76.77
15998;BME280;8103;51.340;12.326;2023-02-17T13:01:05;100072.13;;;14.16;76.93
15998;BME280;8103;51.340;12.326;2023-02-17T13:03:36;100059.16;;;14.18;76.97
15998;BME280;8103;51.340;12.326;2023-02-17T13:06:30;100065.09;;;14.20;76.65
15998;BME280;8103;51.340;12.326;2023-02-17T13:09:23;100061.81;;;14.28;76.60
15998;BME280;8103;51.340;12.326;2023-02-17T13:11:51;100049.91;;;14.34;76.15
15998;BME280;8103;51.340;12.326;2023-02-17T13:14:45;100036.97;;;14.36;75.93
15998;BME280;8103;51.340;12.326;2023-02-17T13:17:38;100030.53;;;14.32;76.00
15998;BME280;8103;51.340;12.326;2023-02-17T13:22:43;100025.63;;;14.39;76.02
15998;BME280;8103;51.340;12.326;2023-02-17T13:25:25;100030.53;;;14.32;75.99
15998;BME280;8103;51.340;12.326;2023-02-17T13:27:53;100036.97;;;14.36;75.87
15998;BME280;8103;51.340;12.326;2023-02-17T13:33:04;100047.81;;;14.26;76.25
15998;BME280;8103;51.340;12.326;2023-02-17T13:35:35;100031.09;;;14.24;76.53
15998;BME280;8103;51.340;12.326;2023-02-17T13:38:02;100037.81;;;14.27;76.11
15998;BME280;8103;51.340;12.326;2023-02-17T13:40:37;100016.25;;;14.27;76.19
15998;BME280;8103;51.340;12.326;2023-02-17T13:43:17;100015.69;;;14.30;76.04
15998;BME280;8103;51.340;12.326;2023-02-17T13:46:02;99992.75;;;14.32;76.16
15998;BME280;8103;51.340;12.326;2023-02-17T13:48:33;99994.91;;;14.35;75.79
15998;BME280;8103;51.340;12.326;2023-02-17T13:51:06;99990.81;;;14.38;75.88
15998;BME280;8103;51.340;12.326;2023-02-17T13:53:48;100001.28;;;14.44;75.73
15998;BME280;8103;51.340;12.326;2023-02-17T13:56:29;99994.19;;;14.53;75.50
15998;BME280;8103;51.340;12.326;2023-02-17T13:59:15;99989.31;;;14.60;74.90
15998;BME280;8103;51.340;12.326;2023-02-17T14:01:48;100012.47;;;14.61;74.76
15998;BME280;8103;51.340;12.326;2023-02-17T14:04:26;100003.53;;;14.66;74.70
15998;BME280;8103;51.340;12.326;2023-02-17T14:06:57;100005.41;;;14.70;74.80
15998;BME280;8103;51.340;12.326;2023-02-17T14:09:32;99988.56;;;14.78;74.37
15998;BME280;8103;51.340;12.326;2023-02-17T14:12:08;100012.31;;;14.81;73.90
15998;BME280;8103;51.340;12.326;2023-02-17T14:14:42;100030.31;;;14.91;73.52
15998;BME280;8103;51.340;12.326;2023-02-17T14:17:33;100043.94;;;15.05;73.10